Terminal Aerodrome Forecast
Issued by NWS Newport/Morehead City, NC

Home | Current Version | Previous Version | Text Only | Print | Product List | Glossary On
Versions: 1 2 3 4 5 6 7 8 9 10 11 12 13 14 15 16 17
000
FTUS42 KMHX 290548
TAFEWN
TAF
KEWN 290548Z 2906/3006 00000KT 1/4SM FG BKN002
     FM291300 02006KT 4SM BR BKN005
     FM291600 04009KT P6SM BKN015
     FM291800 03008KT P6SM SCT025=

USA.gov is the U.S. government's official web portal to all federal, state and local government web resources and services.